createdAt,value
2023-04-21T00:08:21.791Z,98815.95
2023-04-21T00:18:48.649Z,98815.78
2023-04-21T00:29:14.226Z,98814.75
2023-04-21T00:39:39.800Z,98808.86
2023-04-21T00:50:06.550Z,98807.47
2023-04-21T01:00:33.270Z,98799.33
2023-04-21T01:10:59.172Z,98799.67
2023-04-21T01:21:25.178Z,98798.98
2023-04-21T01:31:50.783Z,98798.27
2023-04-21T01:42:16.895Z,98810.07
2023-04-21T01:52:42.690Z,98800.36
2023-04-21T02:03:09.069Z,98795.63
2023-04-21T02:13:34.807Z,98798.02
2023-04-21T02:24:00.515Z,98798.02
2023-04-21T02:34:46.807Z,98794.39
2023-04-21T02:45:14.389Z,98796.02
2023-04-21T02:55:39.878Z,98802.93
2023-04-21T03:06:07.642Z,98801.52
2023-04-21T03:16:33.777Z,98799.23
2023-04-21T03:26:59.907Z,98801.94
2023-04-21T03:37:26.094Z,98801.50
2023-04-21T03:47:54.009Z,98803.65
2023-04-21T03:58:20.005Z,98804.17
2023-04-21T04:08:45.674Z,98812.98
2023-04-21T04:19:12.535Z,98823.85
2023-04-21T04:29:38.236Z,98835.23
2023-04-21T04:40:06.461Z,98840.23
2023-04-21T04:50:32.316Z,98839.05
2023-04-21T05:00:57.755Z,98845.13
2023-04-21T05:11:23.770Z,98845.02
2023-04-21T05:21:50.029Z,98845.51
2023-04-21T05:32:16.153Z,98842.30
2023-04-21T05:42:41.691Z,98845.34
2023-04-21T05:53:07.401Z,98850.75
2023-04-21T06:03:35.162Z,98847.23
2023-04-21T06:14:01.936Z,98834.95
2023-04-21T06:24:35.125Z,98830.65
2023-04-21T06:35:00.907Z,98833.14
2023-04-21T06:45:27.480Z,98827.60
2023-04-21T06:55:53.811Z,98824.50
2023-04-21T07:06:19.764Z,98825.21
2023-04-21T07:16:45.774Z,98830.31
2023-04-21T07:27:11.349Z,98824.38
2023-04-21T07:37:37.210Z,98818.52
2023-04-21T07:48:02.942Z,98809.14
2023-04-21T07:58:29.073Z,98805.09
2023-04-21T08:08:56.121Z,98800.02
2023-04-21T08:19:22.319Z,98792.44
2023-04-21T08:29:50.737Z,98788.11
2023-04-21T08:40:35.990Z,98785.11
2023-04-21T08:51:03.046Z,98784.22
2023-04-21T09:01:28.640Z,98776.45
2023-04-21T09:12:00.150Z,98765.38
2023-04-21T09:22:30.569Z,98753.77
2023-04-21T09:32:59.558Z,98742.38
2023-04-21T09:43:25.050Z,98737.01
2023-04-21T09:53:54.306Z,98726.56
2023-04-21T10:04:21.880Z,98728.65
2023-04-21T10:14:51.500Z,98733.50
2023-04-21T10:25:17.325Z,98715.16
2023-04-21T10:36:05.111Z,98710.89
2023-04-21T10:46:36.306Z,98709.45
2023-04-21T10:57:03.368Z,98697.29
2023-04-21T11:07:29.546Z,98682.91
2023-04-21T11:17:55.892Z,98680.88
2023-04-21T11:28:24.891Z,98678.54
2023-04-21T11:38:51.375Z,98666.89
2023-04-21T11:49:18.518Z,98659.70
2023-04-21T11:59:46.548Z,98659.30
2023-04-21T12:10:14.760Z,98648.77
2023-04-21T12:20:40.453Z,98632.48
2023-04-21T12:31:06.451Z,98628.98
2023-04-21T12:41:32.190Z,98627.17
2023-04-21T12:51:57.631Z,98619.08
2023-04-21T13:02:23.825Z,98614.44
2023-04-21T13:12:49.369Z,98615.67
2023-04-21T13:23:16.405Z,98608.77
2023-04-21T13:33:42.923Z,98594.81
2023-04-21T13:44:08.793Z,98604.58
2023-04-21T13:54:35.081Z,98588.83
2023-04-21T14:05:01.188Z,98570.89
2023-04-21T14:15:27.308Z,98556.51
2023-04-21T14:25:54.810Z,98554.92
2023-04-21T14:36:21.196Z,98561.74
2023-04-21T14:46:53.732Z,98553.43
2023-04-21T14:57:32.028Z,98538.65
2023-04-21T15:07:57.651Z,98525.92
2023-04-21T15:18:23.545Z,98522.14
2023-04-21T15:28:49.512Z,98519.10
2023-04-21T15:39:15.589Z,98507.42
2023-04-21T15:49:41.589Z,98503.59
2023-04-21T16:00:10.414Z,98496.02
2023-04-21T16:10:36.297Z,98492.86
2023-04-21T16:21:02.521Z,98487.04
2023-04-21T16:31:28.297Z,98483.02
2023-04-21T16:41:54.308Z,98481.42
2023-04-21T16:52:20.240Z,98483.27
2023-04-21T17:02:46.379Z,98482.08
2023-04-21T17:13:12.398Z,98479.19
2023-04-21T17:23:38.565Z,98481.51
2023-04-21T17:34:04.514Z,98484.92
2023-04-21T17:44:30.077Z,98485.15
2023-04-21T17:54:56.163Z,98490.27
2023-04-21T18:05:21.695Z,98500.38
2023-04-21T18:15:47.702Z,98514.59
2023-04-21T18:26:13.800Z,98521.89
2023-04-21T18:36:39.894Z,98521.19
2023-04-21T18:47:06.265Z,98528.91
2023-04-21T18:57:32.235Z,98528.73
2023-04-21T19:07:58.141Z,98524.06
2023-04-21T19:18:24.123Z,98522.09
2023-04-21T19:28:49.710Z,98521.88
2023-04-21T19:39:16.087Z,98524.77
2023-04-21T19:49:42.278Z,98528.00
2023-04-21T20:00:11.915Z,98527.36
2023-04-21T20:10:42.135Z,98532.34
2023-04-21T20:21:08.216Z,98536.87
2023-04-21T20:31:34.521Z,98539.09
2023-04-21T20:42:12.424Z,98546.58
2023-04-21T20:52:41.103Z,98553.55
2023-04-21T21:03:10.199Z,98554.19
2023-04-21T21:13:36.335Z,98557.47
2023-04-21T21:24:02.174Z,98559.17
2023-04-21T21:34:28.302Z,98558.86
2023-04-21T21:44:53.827Z,98565.08
2023-04-21T21:55:19.745Z,98568.89
2023-04-21T22:05:46.071Z,98579.35
2023-04-21T22:16:11.871Z,98579.09
2023-04-21T22:26:37.824Z,98580.73
2023-04-21T22:37:05.660Z,98578.41
2023-04-21T22:47:31.359Z,98572.83
2023-04-21T22:57:57.027Z,98568.09
2023-04-21T23:08:23.121Z,98569.37
2023-04-21T23:18:48.867Z,98576.24
2023-04-21T23:29:14.629Z,98572.07
2023-04-21T23:39:40.689Z,98561.42
2023-04-21T23:50:07.251Z,98557.61
